sensor_id;sensor_type;location;lat;lon;timestamp;pressure;altitude;pressure_sealevel;temperature;humidity
68366;BME280;55283;51.466;5.478;2022-12-20T00:02:20;101236.75;;;19.30;45.20
68366;BME280;55283;51.466;5.478;2022-12-20T00:04:46;101242.69;;;19.32;44.96
68366;BME280;55283;51.466;5.478;2022-12-20T00:07:11;101223.97;;;19.29;45.05
68366;BME280;55283;51.466;5.478;2022-12-20T00:09:39;101233.97;;;19.30;45.18
68366;BME280;55283;51.466;5.478;2022-12-20T00:12:05;101245.13;;;19.30;45.14
68366;BME280;55283;51.466;5.478;2022-12-20T00:14:30;101230.38;;;19.29;45.17
68366;BME280;55283;51.466;5.478;2022-12-20T00:16:55;101237.16;;;19.28;44.93
68366;BME280;55283;51.466;5.478;2022-12-20T00:19:21;101230.78;;;19.28;44.92
68366;BME280;55283;51.466;5.478;2022-12-20T00:21:46;101223.56;;;19.30;44.78
68366;BME280;55283;51.466;5.478;2022-12-20T00:24:11;101235.97;;;19.29;44.94
68366;BME280;55283;51.466;5.478;2022-12-20T00:26:37;101229.22;;;19.27;44.80
68366;BME280;55283;51.466;5.478;2022-12-20T00:29:03;101209.66;;;19.27;45.06
68366;BME280;55283;51.466;5.478;2022-12-20T00:31:32;101214.81;;;19.28;44.89
68366;BME280;55283;51.466;5.478;2022-12-20T00:34:01;101217.25;;;19.26;44.95
68366;BME280;55283;51.466;5.478;2022-12-20T00:36:28;101212.06;;;19.25;44.91
68366;BME280;55283;51.466;5.478;2022-12-20T00:38:58;101224.47;;;19.23;44.95
68366;BME280;55283;51.466;5.478;2022-12-20T00:41:27;101213.66;;;19.26;44.94
68366;BME280;55283;51.466;5.478;2022-12-20T00:43:53;101203.69;;;19.25;44.94
68366;BME280;55283;51.466;5.478;2022-12-20T00:46:19;101201.28;;;19.27;45.09
68366;BME280;55283;51.466;5.478;2022-12-20T00:48:48;101196.41;;;19.31;45.07
68366;BME280;55283;51.466;5.478;2022-12-20T00:51:21;101193.97;;;19.33;44.69
68366;BME280;55283;51.466;5.478;2022-12-20T00:53:47;101197.56;;;19.33;44.85
68366;BME280;55283;51.466;5.478;2022-12-20T00:56:15;101201.94;;;19.34;44.74
68366;BME280;55283;51.466;5.478;2022-12-20T00:58:43;101219.91;;;19.33;44.80
68366;BME280;55283;51.466;5.478;2022-12-20T01:01:17;101205.16;;;19.33;44.66
68366;BME280;55283;51.466;5.478;2022-12-20T01:03:42;101195.91;;;19.36;44.80
68366;BME280;55283;51.466;5.478;2022-12-20T01:06:09;101196.34;;;19.34;44.94
68366;BME280;55283;51.466;5.478;2022-12-20T01:08:35;101188.75;;;19.35;44.83
68366;BME280;55283;51.466;5.478;2022-12-20T01:11:14;101199.94;;;19.35;44.98
68366;BME280;55283;51.466;5.478;2022-12-20T01:13:45;101199.56;;;19.33;44.93
68366;BME280;55283;51.466;5.478;2022-12-20T01:16:15;101219.91;;;19.33;45.07
68366;BME280;55283;51.466;5.478;2022-12-20T01:18:48;101220.72;;;19.34;44.68
68366;BME280;55283;51.466;5.478;2022-12-20T01:21:15;101221.56;;;19.31;45.15
68366;BME280;55283;51.466;5.478;2022-12-20T01:23:41;101217.19;;;19.30;44.67
68366;BME280;55283;51.466;5.478;2022-12-20T01:26:12;101202.75;;;19.35;44.83
68366;BME280;55283;51.466;5.478;2022-12-20T01:28:42;101207.50;;;19.34;44.82
68366;BME280;55283;51.466;5.478;2022-12-20T01:31:10;101224.72;;;19.33;44.75
68366;BME280;55283;51.466;5.478;2022-12-20T01:33:36;101219.97;;;19.30;44.84
68366;BME280;55283;51.466;5.478;2022-12-20T01:36:07;101219.59;;;19.28;44.86
68366;BME280;55283;51.466;5.478;2022-12-20T01:38:40;101217.59;;;19.28;45.15
68366;BME280;55283;51.466;5.478;2022-12-20T01:41:08;101189.25;;;19.30;45.22
68366;BME280;55283;51.466;5.478;2022-12-20T01:46:17;101193.59;;;19.31;44.91
68366;BME280;55283;51.466;5.478;2022-12-20T01:48:53;101186.06;;;19.28;44.99
68366;BME280;55283;51.466;5.478;2022-12-20T01:51:21;101183.28;;;19.28;44.98
68366;BME280;55283;51.466;5.478;2022-12-20T01:53:55;101174.50;;;19.26;45.00
68366;BME280;55283;51.466;5.478;2022-12-20T01:56:22;101167.34;;;19.25;44.98
68366;BME280;55283;51.466;5.478;2022-12-20T01:58:50;101165.34;;;19.25;44.74
68366;BME280;55283;51.466;5.478;2022-12-20T02:01:21;101149.50;;;19.18;44.78
68366;BME280;55283;51.466;5.478;2022-12-20T02:03:48;101158.13;;;19.28;45.35
68366;BME280;55283;51.466;5.478;2022-12-20T02:06:20;101161.34;;;19.26;44.92
68366;BME280;55283;51.466;5.478;2022-12-20T02:08:47;101159.34;;;19.27;44.90
68366;BME280;55283;51.466;5.478;2022-12-20T02:13:57;101164.56;;;19.25;44.62
68366;BME280;55283;51.466;5.478;2022-12-20T02:16:31;101147.41;;;19.22;44.58
68366;BME280;55283;51.466;5.478;2022-12-20T02:27:30;101132.28;;;19.20;45.05
68366;BME280;55283;51.466;5.478;2022-12-20T02:30:08;101126.69;;;19.20;44.86
68366;BME280;55283;51.466;5.478;2022-12-20T02:32:39;101126.34;;;19.18;45.25
68366;BME280;55283;51.466;5.478;2022-12-20T02:35:08;101126.03;;;19.12;44.98
68366;BME280;55283;51.466;5.478;2022-12-20T02:37:34;101126.34;;;19.18;45.02
68366;BME280;55283;51.466;5.478;2022-12-20T02:40:01;101122.34;;;19.19;44.72
68366;BME280;55283;51.466;5.478;2022-12-20T02:42:32;101127.91;;;19.19;45.18
68366;BME280;55283;51.466;5.478;2022-12-20T02:45:06;101124.75;;;19.17;44.92
68366;BME280;55283;51.466;5.478;2022-12-20T02:50:45;101114.00;;;19.15;45.13
68366;BME280;55283;51.466;5.478;2022-12-20T02:53:13;101116.81;;;19.15;45.06
68366;BME280;55283;51.466;5.478;2022-12-20T02:55:47;101111.22;;;19.15;45.02
68366;BME280;55283;51.466;5.478;2022-12-20T02:58:42;101108.06;;;19.13;44.96
68366;BME280;55283;51.466;5.478;2022-12-20T03:01:12;101108.00;;;19.17;44.67
68366;BME280;55283;51.466;5.478;2022-12-20T03:03:41;101111.22;;;19.15;44.71
68366;BME280;55283;51.466;5.478;2022-12-20T03:06:07;101112.78;;;19.16;44.81
68366;BME280;55283;51.466;5.478;2022-12-20T03:08:33;101119.16;;;19.17;45.02
68366;BME280;55283;51.466;5.478;2022-12-20T03:10:58;101126.75;;;19.16;44.58
68366;BME280;55283;51.466;5.478;2022-12-20T03:13:24;101130.78;;;19.15;44.73
68366;BME280;55283;51.466;5.478;2022-12-20T03:15:50;101104.06;;;19.14;44.81
68366;BME280;55283;51.466;5.478;2022-12-20T03:18:18;101107.66;;;19.15;44.71
68366;BME280;55283;51.466;5.478;2022-12-20T03:20:44;101112.84;;;19.13;44.84
68366;BME280;55283;51.466;5.478;2022-12-20T03:23:09;101108.06;;;19.13;44.76
68366;BME280;55283;51.466;5.478;2022-12-20T03:25:37;101104.06;;;19.14;44.84
68366;BME280;55283;51.466;5.478;2022-12-20T03:28:13;101113.66;;;19.13;44.91
68366;BME280;55283;51.466;5.478;2022-12-20T03:30:41;101103.69;;;19.12;45.07
68366;BME280;55283;51.466;5.478;2022-12-20T03:33:06;101097.66;;;19.14;44.89
68366;BME280;55283;51.466;5.478;2022-12-20T03:35:32;101097.31;;;19.12;45.01
68366;BME280;55283;51.466;5.478;2022-12-20T03:37:57;101101.19;;;19.18;45.21
68366;BME280;55283;51.466;5.478;2022-12-20T03:40:26;101103.47;;;19.23;44.79
68366;BME280;55283;51.466;5.478;2022-12-20T03:42:51;101107.88;;;19.24;44.82
68366;BME280;55283;51.466;5.478;2022-12-20T03:45:19;101101.84;;;19.26;45.07
68366;BME280;55283;51.466;5.478;2022-12-20T03:47:47;101104.22;;;19.27;44.85
68366;BME280;55283;51.466;5.478;2022-12-20T03:50:18;101125.44;;;19.25;44.75
68366;BME280;55283;51.466;5.478;2022-12-20T03:52:43;101107.03;;;19.27;44.86
68366;BME280;55283;51.466;5.478;2022-12-20T03:55:09;101116.19;;;19.28;44.76
68366;BME280;55283;51.466;5.478;2022-12-20T03:57:36;101107.81;;;19.28;44.89
68366;BME280;55283;51.466;5.478;2022-12-20T04:00:02;101111.38;;;19.28;44.64
68366;BME280;55283;51.466;5.478;2022-12-20T04:02:28;101103.00;;;19.28;44.44
68366;BME280;55283;51.466;5.478;2022-12-20T04:04:53;101107.81;;;19.28;44.51
68366;BME280;55283;51.466;5.478;2022-12-20T04:07:19;101103.38;;;19.30;44.46
68366;BME280;55283;51.466;5.478;2022-12-20T04:09:44;101101.38;;;19.31;44.49
68366;BME280;55283;51.466;5.478;2022-12-20T04:12:12;101100.66;;;19.27;44.54
68366;BME280;55283;51.466;5.478;2022-12-20T04:14:40;101094.19;;;19.30;44.40
68366;BME280;55283;51.466;5.478;2022-12-20T04:17:05;101097.78;;;19.30;44.02
68366;BME280;55283;51.466;5.478;2022-12-20T04:19:33;101097.41;;;19.28;44.44
68366;BME280;55283;51.466;5.478;2022-12-20T04:21:59;101098.56;;;19.31;44.39
68366;BME280;55283;51.466;5.478;2022-12-20T04:24:27;101102.16;;;19.31;44.25
68366;BME280;55283;51.466;5.478;2022-12-20T04:26:52;101096.63;;;19.28;44.59
68366;BME280;55283;51.466;5.478;2022-12-20T04:29:18;101098.19;;;19.29;44.41
68366;BME280;55283;51.466;5.478;2022-12-20T04:31:43;101087.88;;;19.26;44.55
68366;BME280;55283;51.466;5.478;2022-12-20T04:34:09;101087.88;;;19.26;44.39
68366;BME280;55283;51.466;5.478;2022-12-20T04:36:34;101079.16;;;19.23;44.60
68366;BME280;55283;51.466;5.478;2022-12-20T04:38:59;101077.53;;;19.22;44.76
68366;BME280;55283;51.466;5.478;2022-12-20T04:41:25;101084.75;;;19.23;44.82
68366;BME280;55283;51.466;5.478;2022-12-20T04:43:53;101091.53;;;19.22;44.65
68366;BME280;55283;51.466;5.478;2022-12-20T04:46:22;101087.94;;;19.22;44.86
68366;BME280;55283;51.466;5.478;2022-12-20T04:48:48;101085.53;;;19.24;44.56
68366;BME280;55283;51.466;5.478;2022-12-20T04:51:13;101070.38;;;19.21;44.40
68366;BME280;55283;51.466;5.478;2022-12-20T04:53:42;101078.34;;;19.23;44.61
68366;BME280;55283;51.466;5.478;2022-12-20T04:56:20;101081.56;;;19.21;44.72
68366;BME280;55283;51.466;5.478;2022-12-20T04:58:48;101074.75;;;19.22;44.74
68366;BME280;55283;51.466;5.478;2022-12-20T05:01:20;101072.03;;;19.19;44.80
68366;BME280;55283;51.466;5.478;2022-12-20T05:03:46;101066.44;;;19.19;44.83
68366;BME280;55283;51.466;5.478;2022-12-20T05:06:12;101068.81;;;19.20;44.78
68366;BME280;55283;51.466;5.478;2022-12-20T05:08:38;101066.88;;;19.17;44.86
68366;BME280;55283;51.466;5.478;2022-12-20T05:11:04;101065.66;;;19.18;44.80
68366;BME280;55283;51.466;5.478;2022-12-20T05:13:30;101054.47;;;19.18;44.88
68366;BME280;55283;51.466;5.478;2022-12-20T05:15:58;101060.06;;;19.18;44.97
68366;BME280;55283;51.466;5.478;2022-12-20T05:18:24;101054.88;;;19.17;44.99
68366;BME280;55283;51.466;5.478;2022-12-20T05:20:59;101054.88;;;19.17;44.95
68366;BME280;55283;51.466;5.478;2022-12-20T05:23:44;101045.72;;;19.16;44.85
68366;BME280;55283;51.466;5.478;2022-12-20T05:26:31;101030.97;;;19.16;44.83
68366;BME280;55283;51.466;5.478;2022-12-20T05:28:57;101041.78;;;19.14;44.94
68366;BME280;55283;51.466;5.478;2022-12-20T05:31:22;101040.56;;;19.15;44.93
68366;BME280;55283;51.466;5.478;2022-12-20T05:33:47;101028.19;;;19.16;44.86
68366;BME280;55283;51.466;5.478;2022-12-20T05:36:13;101033.34;;;19.17;45.11
68366;BME280;55283;51.466;5.478;2022-12-20T05:38:38;101040.91;;;19.17;44.85
68366;BME280;55283;51.466;5.478;2022-12-20T05:41:06;101028.47;;;19.21;44.88
68366;BME280;55283;51.466;5.478;2022-12-20T05:43:33;101025.69;;;19.21;45.02
68366;BME280;55283;51.466;5.478;2022-12-20T05:45:58;101023.25;;;19.23;45.00
68366;BME280;55283;51.466;5.478;2022-12-20T05:48:24;101025.53;;;19.29;44.66
68366;BME280;55283;51.466;5.478;2022-12-20T05:50:50;101032.72;;;19.30;44.44
68366;BME280;55283;51.466;5.478;2022-12-20T05:53:15;101024.75;;;19.28;44.66
68366;BME280;55283;51.466;5.478;2022-12-20T05:55:48;101023.09;;;19.31;44.37
68366;BME280;55283;51.466;5.478;2022-12-20T05:58:14;101015.94;;;19.30;44.67
68366;BME280;55283;51.466;5.478;2022-12-20T06:00:40;101016.28;;;19.32;44.42
68366;BME280;55283;51.466;5.478;2022-12-20T06:03:08;101003.53;;;19.31;44.64
68366;BME280;55283;51.466;5.478;2022-12-20T06:05:35;101006.31;;;19.31;44.63
68366;BME280;55283;51.466;5.478;2022-12-20T06:08:02;100997.16;;;19.30;44.63
68366;BME280;55283;51.466;5.478;2022-12-20T06:10:36;100992.78;;;19.29;44.66
68366;BME280;55283;51.466;5.478;2022-12-20T06:13:02;100978.38;;;19.31;44.54
68366;BME280;55283;51.466;5.478;2022-12-20T06:15:31;100970.06;;;19.27;44.67
68366;BME280;55283;51.466;5.478;2022-12-20T06:17:56;100964.03;;;19.29;44.55
68366;BME280;55283;51.466;5.478;2022-12-20T06:20:25;100972.00;;;19.30;44.74
68366;BME280;55283;51.466;5.478;2022-12-20T06:22:50;100977.22;;;19.28;44.65
68366;BME280;55283;51.466;5.478;2022-12-20T06:25:17;100978.00;;;19.29;44.62
68366;BME280;55283;51.466;5.478;2022-12-20T06:27:42;100978.00;;;19.29;44.53
68366;BME280;55283;51.466;5.478;2022-12-20T06:30:11;100977.31;;;19.25;44.64
68366;BME280;55283;51.466;5.478;2022-12-20T06:32:36;100980.09;;;19.25;44.94
68366;BME280;55283;51.466;5.478;2022-12-20T06:35:04;100985.59;;;19.28;44.73
68366;BME280;55283;51.466;5.478;2022-12-20T06:37:29;100995.63;;;19.26;44.93
68366;BME280;55283;51.466;5.478;2022-12-20T06:39:56;100994.56;;;19.19;45.38
68366;BME280;55283;51.466;5.478;2022-12-20T06:42:24;100991.28;;;19.25;45.61
68366;BME280;55283;51.466;5.478;2022-12-20T06:44:50;100977.22;;;19.28;45.46
68366;BME280;55283;51.466;5.478;2022-12-20T06:47:15;100979.59;;;19.30;45.39
68366;BME280;55283;51.466;5.478;2022-12-20T06:49:41;100974.44;;;19.28;45.57
68366;BME280;55283;51.466;5.478;2022-12-20T06:52:06;100962.63;;;19.20;45.61
68366;BME280;55283;51.466;5.478;2022-12-20T06:54:31;100980.97;;;19.21;45.92
68366;BME280;55283;51.466;5.478;2022-12-20T06:57:02;100975.44;;;19.18;46.04
68366;BME280;55283;51.466;5.478;2022-12-20T06:59:27;100984.97;;;19.20;46.26
68366;BME280;55283;51.466;5.478;2022-12-20T07:01:53;100986.06;;;19.27;46.33
68366;BME280;55283;51.466;5.478;2022-12-20T07:04:21;100987.13;;;19.33;46.19
68366;BME280;55283;51.466;5.478;2022-12-20T07:06:49;100986.19;;;19.39;46.00
68366;BME280;55283;51.466;5.478;2022-12-20T07:09:15;100983.25;;;19.47;46.25
68366;BME280;55283;51.466;5.478;2022-12-20T07:11:41;100983.75;;;19.41;46.41
68366;BME280;55283;51.466;5.478;2022-12-20T07:14:07;100979.31;;;19.44;46.22
68366;BME280;55283;51.466;5.478;2022-12-20T07:16:36;100984.53;;;19.42;46.60
68366;BME280;55283;51.466;5.478;2022-12-20T07:19:02;100992.06;;;19.45;46.91
68366;BME280;55283;51.466;5.478;2022-12-20T07:21:27;100987.63;;;19.48;46.77
68366;BME280;55283;51.466;5.478;2022-12-20T07:23:54;100984.38;;;19.49;46.64
68366;BME280;55283;51.466;5.478;2022-12-20T07:26:22;100992.44;;;19.47;46.64
68366;BME280;55283;51.466;5.478;2022-12-20T07:28:47;100988.56;;;19.41;46.60
68366;BME280;55283;51.466;5.478;2022-12-20T07:31:12;100986.19;;;19.39;46.03
68366;BME280;55283;51.466;5.478;2022-12-20T07:33:40;100979.66;;;19.46;44.42
68366;BME280;55283;51.466;5.478;2022-12-20T07:36:10;100987.53;;;19.51;44.11
68366;BME280;55283;51.466;5.478;2022-12-20T07:38:37;100984.53;;;19.42;45.41
68366;BME280;55283;51.466;5.478;2022-12-20T07:41:11;100994.16;;;19.41;46.06
68366;BME280;55283;51.466;5.478;2022-12-20T07:43:44;100996.50;;;19.42;46.40
68366;BME280;55283;51.466;5.478;2022-12-20T07:46:13;100998.94;;;19.40;46.74
68366;BME280;55283;51.466;5.478;2022-12-20T07:48:42;101004.31;;;19.31;47.28
68366;BME280;55283;51.466;5.478;2022-12-20T07:51:12;101008.25;;;19.34;46.87
68366;BME280;55283;51.466;5.478;2022-12-20T07:53:42;100999.78;;;19.37;46.64
68366;BME280;55283;51.466;5.478;2022-12-20T07:56:09;101003.47;;;19.34;46.85
68366;BME280;55283;51.466;5.478;2022-12-20T07:58:38;101004.53;;;19.40;46.40
68366;BME280;55283;51.466;5.478;2022-12-20T08:01:06;101004.59;;;19.37;46.52
68366;BME280;55283;51.466;5.478;2022-12-20T08:03:44;101011.91;;;19.31;46.64
68366;BME280;55283;51.466;5.478;2022-12-20T08:06:12;101012.22;;;19.36;46.13
68366;BME280;55283;51.466;5.478;2022-12-20T08:08:42;101009.00;;;19.38;46.32
68366;BME280;55283;51.466;5.478;2022-12-20T08:11:09;101013.72;;;19.41;46.16
68366;BME280;55283;51.466;5.478;2022-12-20T08:13:35;101009.78;;;19.38;46.11
68366;BME280;55283;51.466;5.478;2022-12-20T08:16:01;101008.91;;;19.41;45.94
68366;BME280;55283;51.466;5.478;2022-12-20T08:18:26;101012.41;;;19.45;45.90
68366;BME280;55283;51.466;5.478;2022-12-20T08:20:51;101010.94;;;19.41;45.74
68366;BME280;55283;51.466;5.478;2022-12-20T08:23:17;101021.38;;;19.37;45.72
68366;BME280;55283;51.466;5.478;2022-12-20T08:25:46;101020.66;;;19.33;45.87
68366;BME280;55283;51.466;5.478;2022-12-20T08:28:11;101008.75;;;19.29;46.16
68366;BME280;55283;51.466;5.478;2022-12-20T08:30:36;101004.75;;;19.30;45.55
68366;BME280;55283;51.466;5.478;2022-12-20T08:33:02;101008.63;;;19.36;45.72
68366;BME280;55283;51.466;5.478;2022-12-20T08:35:27;101007.47;;;19.33;45.87
68366;BME280;55283;51.466;5.478;2022-12-20T08:37:53;101007.91;;;19.32;44.96
68366;BME280;55283;51.466;5.478;2022-12-20T08:40:19;101007.91;;;19.32;45.86
68366;BME280;55283;51.466;5.478;2022-12-20T08:42:44;101004.75;;;19.30;46.02
68366;BME280;55283;51.466;5.478;2022-12-20T08:45:13;101003.31;;;19.21;46.00
68366;BME280;55283;51.466;5.478;2022-12-20T08:47:39;100989.63;;;19.27;45.64
68366;BME280;55283;51.466;5.478;2022-12-20T08:50:05;100993.66;;;19.26;45.81
68366;BME280;55283;51.466;5.478;2022-12-20T08:52:31;100990.00;;;19.29;45.80
68366;BME280;55283;51.466;5.478;2022-12-20T08:54:56;101001.22;;;19.26;46.11
68366;BME280;55283;51.466;5.478;2022-12-20T08:57:25;100999.09;;;19.33;45.93
68366;BME280;55283;51.466;5.478;2022-12-20T08:59:50;100998.09;;;19.23;45.79
68366;BME280;55283;51.466;5.478;2022-12-20T09:02:16;100990.41;;;19.28;45.97
68366;BME280;55283;51.466;5.478;2022-12-20T09:04:47;100983.31;;;19.23;45.93
68366;BME280;55283;51.466;5.478;2022-12-20T09:07:18;100982.09;;;19.24;45.83
68366;BME280;55283;51.466;5.478;2022-12-20T09:09:45;100982.41;;;19.30;45.88
68366;BME280;55283;51.466;5.478;2022-12-20T09:12:10;100985.97;;;19.30;45.74
68366;BME280;55283;51.466;5.478;2022-12-20T09:14:36;100966.03;;;19.28;45.74
68366;BME280;55283;51.466;5.478;2022-12-20T09:17:01;100952.53;;;19.27;45.98
68366;BME280;55283;51.466;5.478;2022-12-20T09:19:27;100977.66;;;19.27;46.06
68366;BME280;55283;51.466;5.478;2022-12-20T09:21:55;100987.53;;;19.31;45.85
68366;BME280;55283;51.466;5.478;2022-12-20T09:24:20;100967.19;;;19.31;45.95
68366;BME280;55283;51.466;5.478;2022-12-20T09:26:46;100975.94;;;19.33;46.04
68366;BME280;55283;51.466;5.478;2022-12-20T09:29:11;100985.19;;;19.30;46.13
68366;BME280;55283;51.466;5.478;2022-12-20T09:31:36;100982.41;;;19.30;45.96
68366;BME280;55283;51.466;5.478;2022-12-20T09:34:02;100975.94;;;19.33;46.05
68366;BME280;55283;51.466;5.478;2022-12-20T09:36:28;100981.63;;;19.29;46.15
68366;BME280;55283;51.466;5.478;2022-12-20T09:38:54;100980.75;;;19.32;45.80
68366;BME280;55283;51.466;5.478;2022-12-20T09:41:42;100984.69;;;19.35;45.60
68366;BME280;55283;51.466;5.478;2022-12-20T09:44:28;100978.66;;;19.36;45.37
68366;BME280;55283;51.466;5.478;2022-12-20T09:46:58;100977.59;;;19.30;45.73
68366;BME280;55283;51.466;5.478;2022-12-20T09:49:28;100970.56;;;19.22;45.79
68366;BME280;55283;51.466;5.478;2022-12-20T10:00:34;100968.06;;;19.28;45.42
68366;BME280;55283;51.466;5.478;2022-12-20T10:03:03;100968.06;;;19.28;45.58
68366;BME280;55283;51.466;5.478;2022-12-20T10:05:32;100977.22;;;19.28;45.59
68366;BME280;55283;51.466;5.478;2022-12-20T10:11:14;100973.56;;;19.31;45.26
68366;BME280;55283;51.466;5.478;2022-12-20T10:13:56;100967.28;;;19.27;45.27
68366;BME280;55283;51.466;5.478;2022-12-20T10:16:43;100968.06;;;19.28;45.30
68366;BME280;55283;51.466;5.478;2022-12-20T10:22:30;100959.59;;;19.31;45.35
68366;BME280;55283;51.466;5.478;2022-12-20T10:25:15;100963.91;;;19.36;45.22
68366;BME280;55283;51.466;5.478;2022-12-20T10:27:43;100965.63;;;19.30;45.15
68366;BME280;55283;51.466;5.478;2022-12-20T10:30:14;100964.97;;;19.22;45.43
68366;BME280;55283;51.466;5.478;2022-12-20T10:32:45;100965.72;;;19.26;45.31
68366;BME280;55283;51.466;5.478;2022-12-20T10:37:56;100971.72;;;19.25;45.50
68366;BME280;55283;51.466;5.478;2022-12-20T10:43:16;100956.47;;;19.29;45.29
68366;BME280;55283;51.466;5.478;2022-12-20T10:46:00;100947.34;;;19.25;45.41
68366;BME280;55283;51.466;5.478;2022-12-20T10:48:35;100964.28;;;19.18;45.88
68366;BME280;55283;51.466;5.478;2022-12-20T11:01:34;100957.53;;;19.15;46.17
68366;BME280;55283;51.466;5.478;2022-12-20T11:04:06;100942.53;;;19.26;46.13
68366;BME280;55283;51.466;5.478;2022-12-20T11:06:44;100954.72;;;19.15;46.30
68366;BME280;55283;51.466;5.478;2022-12-20T11:14:27;100947.50;;;18.98;47.13
68366;BME280;55283;51.466;5.478;2022-12-20T11:16:55;100937.47;;;19.00;47.06
68366;BME280;55283;51.466;5.478;2022-12-20T11:22:30;100935.56;;;18.94;47.33
68366;BME280;55283;51.466;5.478;2022-12-20T11:36:17;100934.72;;;19.17;46.78
68366;BME280;55283;51.466;5.478;2022-12-20T11:39:12;100921.19;;;19.15;47.31
68366;BME280;55283;51.466;5.478;2022-12-20T11:41:49;100925.22;;;19.14;47.25
68366;BME280;55283;51.466;5.478;2022-12-20T11:47:52;100920.03;;;19.33;46.61
68366;BME280;55283;51.466;5.478;2022-12-20T11:53:12;100909.38;;;19.28;46.62
68366;BME280;55283;51.466;5.478;2022-12-20T11:55:45;100913.31;;;19.30;46.67
68366;BME280;55283;51.466;5.478;2022-12-20T11:58:20;100907.81;;;19.27;46.73
68366;BME280;55283;51.466;5.478;2022-12-20T12:01:11;100901.69;;;19.32;46.41
68366;BME280;55283;51.466;5.478;2022-12-20T12:03:56;100904.41;;;19.35;46.31
68366;BME280;55283;51.466;5.478;2022-12-20T12:06:27;100897.59;;;19.36;46.32
68366;BME280;55283;51.466;5.478;2022-12-20T12:11:44;100903.09;;;19.40;46.08
68366;BME280;55283;51.466;5.478;2022-12-20T12:14:21;100898.38;;;19.37;46.28
68366;BME280;55283;51.466;5.478;2022-12-20T12:16:53;100894.16;;;19.29;46.62
68366;BME280;55283;51.466;5.478;2022-12-20T12:19:23;100901.06;;;19.24;46.65
68366;BME280;55283;51.466;5.478;2022-12-20T12:22:05;100894.69;;;19.23;46.27
68366;BME280;55283;51.466;5.478;2022-12-20T12:24:37;100890.59;;;19.28;46.10
68366;BME280;55283;51.466;5.478;2022-12-20T12:27:14;100889.81;;;19.28;46.29
68366;BME280;55283;51.466;5.478;2022-12-20T12:29:44;100895.75;;;19.30;46.06
68366;BME280;55283;51.466;5.478;2022-12-20T12:32:23;100899.34;;;19.30;45.81
68366;BME280;55283;51.466;5.478;2022-12-20T12:45:56;100895.38;;;19.28;45.87
68366;BME280;55283;51.466;5.478;2022-12-20T12:50:56;100883.25;;;19.34;45.52
68366;BME280;55283;51.466;5.478;2022-12-20T12:53:35;100886.91;;;19.31;45.96
68366;BME280;55283;51.466;5.478;2022-12-20T12:59:09;100884.38;;;19.20;46.11
68366;BME280;55283;51.466;5.478;2022-12-20T13:06:56;100889.81;;;19.28;45.75
68366;BME280;55283;51.466;5.478;2022-12-20T13:11:50;100882.28;;;19.25;46.16
68366;BME280;55283;51.466;5.478;2022-12-20T13:16:47;100871.53;;;19.23;46.10
68366;BME280;55283;51.466;5.478;2022-12-20T13:19:17;100877.47;;;19.25;45.50
68366;BME280;55283;51.466;5.478;2022-12-20T13:25:01;100876.50;;;19.15;45.79
68366;BME280;55283;51.466;5.478;2022-12-20T13:27:38;100869.56;;;19.04;46.47
68366;BME280;55283;51.466;5.478;2022-12-20T13:32:50;100887.75;;;19.12;45.91
68366;BME280;55283;51.466;5.478;2022-12-20T13:38:04;100872.38;;;19.20;46.07
68366;BME280;55283;51.466;5.478;2022-12-20T13:40:56;100888.44;;;19.16;45.97
68366;BME280;55283;51.466;5.478;2022-12-20T13:43:27;100879.28;;;19.15;45.95
68366;BME280;55283;51.466;5.478;2022-12-20T13:46:12;100872.97;;;19.11;46.03
68366;BME280;55283;51.466;5.478;2022-12-20T13:49:01;100876.84;;;19.17;46.11
68366;BME280;55283;51.466;5.478;2022-12-20T13:51:28;100877.56;;;19.21;45.79
68366;BME280;55283;51.466;5.478;2022-12-20T13:53:59;100876.50;;;19.15;46.13
68366;BME280;55283;51.466;5.478;2022-12-20T13:59:32;100879.13;;;19.22;45.85
68366;BME280;55283;51.466;5.478;2022-12-20T14:01:59;100882.78;;;19.19;46.08
68366;BME280;55283;51.466;5.478;2022-12-20T14:04:41;100866.78;;;19.20;46.15
68366;BME280;55283;51.466;5.478;2022-12-20T14:07:12;100876.78;;;19.21;46.04
68366;BME280;55283;51.466;5.478;2022-12-20T14:09:43;100862.31;;;19.26;46.05
68366;BME280;55283;51.466;5.478;2022-12-20T14:12:14;100866.28;;;19.25;46.45
68366;BME280;55283;51.466;5.478;2022-12-20T14:14:48;100865.88;;;19.27;46.03
68366;BME280;55283;51.466;5.478;2022-12-20T14:17:27;100869.88;;;19.26;46.22
68366;BME280;55283;51.466;5.478;2022-12-20T14:22:51;100868.09;;;19.35;46.00
68366;BME280;55283;51.466;5.478;2022-12-20T14:25:42;100872.88;;;19.35;46.19
68366;BME280;55283;51.466;5.478;2022-12-20T14:28:30;100880.69;;;19.43;45.85
68366;BME280;55283;51.466;5.478;2022-12-20T14:31:00;100868.00;;;19.39;46.07
68366;BME280;55283;51.466;5.478;2022-12-20T14:33:36;100874.38;;;19.39;46.30
68366;BME280;55283;51.466;5.478;2022-12-20T14:36:21;100874.28;;;19.43;46.16
68366;BME280;55283;51.466;5.478;2022-12-20T14:38:49;100870.28;;;19.44;46.13
68366;BME280;55283;51.466;5.478;2022-12-20T14:41:38;100863.91;;;19.43;46.07
68366;BME280;55283;51.466;5.478;2022-12-20T14:44:19;100857.50;;;19.43;45.95
68366;BME280;55283;51.466;5.478;2022-12-20T14:46:48;100865.13;;;19.42;46.17
68366;BME280;55283;51.466;5.478;2022-12-20T14:49:28;100876.03;;;19.37;46.35
68366;BME280;55283;51.466;5.478;2022-12-20T14:55:30;100870.00;;;19.38;46.18
68366;BME280;55283;51.466;5.478;2022-12-20T15:08:27;100850.34;;;19.42;46.32
68366;BME280;55283;51.466;5.478;2022-12-20T15:11:11;100841.97;;;19.42;46.08
68366;BME280;55283;51.466;5.478;2022-12-20T15:13:46;100841.59;;;19.40;46.18
68366;BME280;55283;51.466;5.478;2022-12-20T15:18:46;100839.19;;;19.42;46.29